Time;durP1;ratioP1;P1;durP2;ratioP2;P2;SDS_P1;SDS_P2;PMS_P1;PMS_P2;Temp;Humidity;BMP_temperature;BMP_pressure;BME280_temperature;BME280_humidity;BME280_pressure;Samples;Min_cycle;Max_cycle;Signal;HPM_P1;HPM_P2
2023/06/30 00:00:35;;;;;;;;;;;;;;;25.19;43.00;100561.22;5001012;28;19914;-79
2023/06/30 00:03:26;;;;;;;;;;;;;;;25.09;43.58;100558.13;4999349;28;19914;-79
2023/06/30 00:06:18;;;;;;;;;;;;;;;25.01;43.78;100553.88;5002445;28;20380;-80
2023/06/30 00:09:10;;;;;;;;;;;;;;;25.08;44.30;100561.34;5000671;28;19921;-80
2023/06/30 00:12:02;;;;;;;;;;;;;;;25.21;43.75;100556.78;5003294;28;19921;-80
2023/06/30 00:14:54;;;;;;;;;;;;;;;25.11;43.75;100561.28;5001569;28;20372;-79
2023/06/30 00:17:46;;;;;;;;;;;;;;;24.96;44.51;100554.34;5000132;28;19914;-80
2023/06/30 00:20:37;;;;;;;;;;;;;;;25.28;44.57;100547.56;5002998;28;19914;-80
2023/06/30 00:23:29;;;;;;;;;;;;;;;25.46;43.90;100537.72;4998945;28;19914;-80
2023/06/30 00:26:21;;;;;;;;;;;;;;;25.54;43.71;100538.41;5004199;28;19921;-79
2023/06/30 00:29:13;;;;;;;;;;;;;;;25.72;43.45;100532.59;4999068;28;19913;-79
2023/06/30 00:32:05;;;;;;;;;;;;;;;25.69;43.26;100530.66;4985295;28;19918;-80
2023/06/30 00:34:57;;;;;;;;;;;;;;;25.50;43.58;100527.31;4988855;28;19930;-79
2023/06/30 00:37:47;;;;;;;;;;;;;;;25.32;43.88;100521.25;5000799;28;19913;-79
2023/06/30 00:40:38;;;;;;;;;;;;;;;25.29;44.31;100527.66;4998240;28;19914;-79
2023/06/30 00:43:31;;;;;;;;;;;;;;;25.19;44.80;100528.59;4997322;28;20347;-79
2023/06/30 00:46:28;;;;;;;;;;;;;;;25.25;44.71;100526.91;4999407;28;20380;-80
2023/06/30 00:49:18;;;;;;;;;;;;;;;25.34;44.05;100518.84;5003165;28;19914;-80
2023/06/30 00:52:10;;;;;;;;;;;;;;;25.55;44.08;100529.66;5000509;28;19918;-80
2023/06/30 00:55:03;;;;;;;;;;;;;;;25.50;44.15;100524.53;4984227;28;19913;-79
2023/06/30 00:57:55;;;;;;;;;;;;;;;25.37;44.12;100512.41;4988124;28;19914;-80
2023/06/30 01:00:47;;;;;;;;;;;;;;;25.31;44.32;100521.66;4999619;28;19914;-79
2023/06/30 01:03:44;;;;;;;;;;;;;;;25.24;44.49;100513.41;4983522;28;19918;-80
2023/06/30 01:07:00;;;;;;;;;;;;;;;25.00;44.89;100512.53;5001624;28;20296;-80
2023/06/30 01:09:56;;;;;;;;;;;;;;;24.91;45.24;100512.28;4998337;28;19917;-80
2023/06/30 01:12:48;;;;;;;;;;;;;;;24.88;45.25;100504.78;4999625;28;20373;-80
2023/06/30 01:15:40;;;;;;;;;;;;;;;24.95;45.45;100511.03;4998691;28;19914;-79
2023/06/30 01:18:33;;;;;;;;;;;;;;;25.00;45.01;100505.00;5003775;28;19917;-80
2023/06/30 01:21:25;;;;;;;;;;;;;;;24.98;44.97;100507.41;5000707;28;19914;-80
2023/06/30 01:24:18;;;;;;;;;;;;;;;25.00;44.62;100499.41;4997139;28;19914;-80
2023/06/30 01:27:08;;;;;;;;;;;;;;;24.93;44.69;100507.09;5001195;28;19913;-80
2023/06/30 01:30:01;;;;;;;;;;;;;;;24.86;44.93;100504.38;5000230;28;19913;-80
2023/06/30 01:32:52;;;;;;;;;;;;;;;25.04;45.05;100505.72;4979259;28;19918;-80
2023/06/30 01:35:43;;;;;;;;;;;;;;;25.20;44.50;100507.88;4981509;28;19914;-80
2023/06/30 01:38:36;;;;;;;;;;;;;;;25.29;44.40;100505.38;4980172;28;19913;-80
2023/06/30 01:41:28;;;;;;;;;;;;;;;25.46;44.77;100507.09;4968373;28;19917;-80
2023/06/30 01:44:21;;;;;;;;;;;;;;;25.54;43.50;100505.78;4980464;28;19914;-79
2023/06/30 01:47:13;;;;;;;;;;;;;;;25.33;44.26;100505.31;4977721;28;20389;-79
2023/06/30 01:50:07;;;;;;;;;;;;;;;25.21;44.37;100503.91;4982416;28;19914;-80
2023/06/30 01:52:56;;;;;;;;;;;;;;;25.38;44.98;100500.06;4979401;28;20378;-79
2023/06/30 01:55:54;;;;;;;;;;;;;;;25.49;44.35;100489.56;4978550;28;19914;-79
2023/06/30 01:58:46;;;;;;;;;;;;;;;25.48;43.98;100493.56;4981277;28;19965;-80
2023/06/30 02:01:38;;;;;;;;;;;;;;;25.43;44.14;100490.44;4977792;28;19913;-80
2023/06/30 02:04:30;;;;;;;;;;;;;;;25.31;44.73;100477.91;4967808;28;19914;-80
2023/06/30 02:07:21;;;;;;;;;;;;;;;25.16;45.46;100479.31;4979606;28;19918;-79
2023/06/30 02:10:13;;;;;;;;;;;;;;;25.17;45.01;100475.34;4964238;28;19918;-79
2023/06/30 02:13:06;;;;;;;;;;;;;;;25.18;45.31;100474.13;4964525;28;19918;-79
2023/06/30 02:15:56;;;;;;;;;;;;;;;25.46;44.91;100475.66;4980279;28;19914;-80
2023/06/30 02:18:48;;;;;;;;;;;;;;;25.24;44.83;100480.00;4978517;28;19914;-79
2023/06/30 02:21:40;;;;;;;;;;;;;;;25.21;44.63;100476.06;4966478;28;19914;-79
2023/06/30 02:24:32;;;;;;;;;;;;;;;25.33;43.90;100480.28;4978135;28;20372;-79
2023/06/30 02:27:24;;;;;;;;;;;;;;;25.01;43.99;100480.72;4976441;28;19913;-78
2023/06/30 02:30:16;;;;;;;;;;;;;;;25.04;44.11;100474.34;4977305;28;19914;-78
2023/06/30 02:33:08;;;;;;;;;;;;;;;24.98;44.27;100467.66;4984883;28;19922;-80
2023/06/30 02:36:00;;;;;;;;;;;;;;;24.96;45.06;100458.94;4981342;28;19914;-80
2023/06/30 02:38:52;;;;;;;;;;;;;;;25.14;44.91;100460.25;4978276;28;19918;-79
2023/06/30 02:41:45;;;;;;;;;;;;;;;25.05;44.40;100450.84;4968293;28;19914;-79
2023/06/30 02:44:37;;;;;;;;;;;;;;;25.13;44.19;100449.56;4980720;28;19914;-79
2023/06/30 02:47:26;;;;;;;;;;;;;;;25.02;44.75;100443.34;4978218;28;19914;-80
2023/06/30 02:50:18;;;;;;;;;;;;;;;24.98;44.92;100443.41;4978480;28;19914;-80
2023/06/30 02:53:10;;;;;;;;;;;;;;;24.94;44.54;100447.47;4978393;28;19918;-79
2023/06/30 02:56:02;;;;;;;;;;;;;;;25.29;44.96;100448.91;4977642;28;20405;-80
2023/06/30 02:58:57;;;;;;;;;;;;;;;25.50;44.48;100454.13;4994056;28;19914;-81
2023/06/30 03:01:47;;;;;;;;;;;;;;;25.67;44.07;100449.50;4964202;28;19914;-79
2023/06/30 03:04:38;;;;;;;;;;;;;;;25.41;42.86;100451.09;4967787;28;19914;-79
2023/06/30 03:07:31;;;;;;;;;;;;;;;25.16;43.08;100447.91;4965637;28;19914;-80
2023/06/30 03:10:23;;;;;;;;;;;;;;;25.05;43.51;100440.50;4977676;28;19918;-78
2023/06/30 03:13:15;;;;;;;;;;;;;;;24.93;43.57;100449.47;4976860;28;19918;-79
2023/06/30 03:16:07;;;;;;;;;;;;;;;24.89;43.68;100447.94;4965083;28;19918;-79
2023/06/30 03:18:59;;;;;;;;;;;;;;;24.92;43.65;100447.09;4990115;28;19914;-79
2023/06/30 03:21:50;;;;;;;;;;;;;;;24.99;43.85;100436.63;4980180;28;19914;-79
2023/06/30 03:24:42;;;;;;;;;;;;;;;24.92;43.29;100436.75;4982636;28;19918;-79
2023/06/30 03:27:34;;;;;;;;;;;;;;;24.73;43.25;100440.16;4999216;28;19914;-79
2023/06/30 03:30:26;;;;;;;;;;;;;;;24.96;42.56;100442.25;4996458;28;19913;-79
2023/06/30 03:33:18;;;;;;;;;;;;;;;25.03;41.21;100445.72;4993672;28;20297;-79
2023/06/30 03:36:10;;;;;;;;;;;;;;;25.02;41.32;100437.78;4978342;28;19914;-79
2023/06/30 03:39:02;;;;;;;;;;;;;;;24.87;41.56;100440.00;4974715;28;20440;-78
2023/06/30 03:41:54;;;;;;;;;;;;;;;24.88;41.73;100441.56;4992796;28;19914;-79
2023/06/30 03:44:46;;;;;;;;;;;;;;;24.90;42.70;100443.91;4997470;28;19914;-78
2023/06/30 03:47:38;;;;;;;;;;;;;;;24.87;41.97;100431.66;4994879;28;19914;-79
2023/06/30 03:50:29;;;;;;;;;;;;;;;24.85;43.02;100430.44;4998551;28;19913;-80
2023/06/30 03:53:21;;;;;;;;;;;;;;;24.80;43.14;100430.91;4993455;28;19918;-79
2023/06/30 03:56:13;;;;;;;;;;;;;;;24.73;42.98;100428.25;4966944;28;19918;-79
2023/06/30 03:59:04;;;;;;;;;;;;;;;24.72;42.83;100433.03;4997017;28;19914;-79
2023/06/30 04:01:57;;;;;;;;;;;;;;;24.79;42.40;100426.59;4994724;28;19914;-80
2023/06/30 04:04:49;;;;;;;;;;;;;;;24.77;42.96;100423.44;4980491;28;19914;-80
2023/06/30 04:07:41;;;;;;;;;;;;;;;24.67;43.40;100437.06;4984662;28;20385;-81
2023/06/30 04:10:33;;;;;;;;;;;;;;;24.67;43.07;100422.38;4983020;28;19918;-79
2023/06/30 04:13:25;;;;;;;;;;;;;;;24.67;43.24;100419.59;4980393;28;19918;-80
2023/06/30 04:16:17;;;;;;;;;;;;;;;24.71;43.59;100429.47;4983411;28;19918;-79
2023/06/30 04:19:09;;;;;;;;;;;;;;;24.81;44.32;100427.72;4976953;28;19914;-80
2023/06/30 04:22:01;;;;;;;;;;;;;;;24.87;44.29;100430.84;4983514;28;19914;-80
2023/06/30 04:24:53;;;;;;;;;;;;;;;24.94;44.82;100425.22;4982526;28;19918;-80
2023/06/30 04:27:45;;;;;;;;;;;;;;;24.93;44.55;100437.53;4980279;28;19914;-80
2023/06/30 04:30:36;;;;;;;;;;;;;;;24.94;44.66;100441.91;4983660;28;19914;-80
2023/06/30 04:33:28;;;;;;;;;;;;;;;24.92;44.16;100435.94;4996144;28;19918;-80
2023/06/30 04:36:20;;;;;;;;;;;;;;;24.82;44.14;100442.44;5004597;28;19914;-80
2023/06/30 04:39:12;;;;;;;;;;;;;;;24.81;44.23;100446.41;5002122;28;19914;-80
2023/06/30 04:42:04;;;;;;;;;;;;;;;24.90;45.91;100441.94;4990607;28;19914;-82
2023/06/30 04:44:56;;;;;;;;;;;;;;;24.88;45.83;100435.22;4994153;28;19914;-80
2023/06/30 04:47:48;;;;;;;;;;;;;;;24.77;47.51;100434.56;4994755;23;19923;-78
2023/06/30 04:50:39;;;;;;;;;;;;;;;24.75;46.74;100442.50;4961648;28;19922;-78
2023/06/30 04:53:31;;;;;;;;;;;;;;;24.78;46.67;100436.13;4958929;28;19918;-78
2023/06/30 04:56:21;;;;;;;;;;;;;;;24.82;46.97;100443.22;4956862;28;19914;-79
2023/06/30 04:59:13;;;;;;;;;;;;;;;24.77;47.79;100438.13;4960829;28;19914;-77
2023/06/30 05:02:05;;;;;;;;;;;;;;;24.92;46.26;100427.59;4965828;28;19914;-80
2023/06/30 05:04:57;;;;;;;;;;;;;;;24.88;45.86;100424.09;4956020;28;20373;-80
2023/06/30 05:07:46;;;;;;;;;;;;;;;24.74;46.45;100410.38;4957318;28;19918;-79
2023/06/30 05:10:38;;;;;;;;;;;;;;;24.75;45.13;100414.69;4957860;28;19914;-78
2023/06/30 05:13:30;;;;;;;;;;;;;;;24.80;44.48;100408.66;4955311;28;19922;-78
2023/06/30 05:16:22;;;;;;;;;;;;;;;24.84;44.19;100407.41;4958844;28;19915;-80
2023/06/30 05:19:14;;;;;;;;;;;;;;;24.97;43.91;100402.09;4956776;28;19914;-78
2023/06/30 05:22:04;;;;;;;;;;;;;;;24.98;44.14;100404.47;4960288;28;19915;-80
2023/06/30 05:24:56;;;;;;;;;;;;;;;25.08;44.30;100397.94;4957765;28;19914;-77
2023/06/30 05:27:48;;;;;;;;;;;;;;;25.29;44.43;100382.91;4958691;28;19918;-78
2023/06/30 05:30:40;;;;;;;;;;;;;;;25.25;43.98;100375.78;4962932;28;20301;-78
2023/06/30 05:33:32;;;;;;;;;;;;;;;25.23;44.27;100373.44;4953693;28;19919;-79
2023/06/30 05:36:24;;;;;;;;;;;;;;;25.12;43.89;100367.28;4957068;28;19914;-78
2023/06/30 05:39:17;;;;;;;;;;;;;;;25.12;43.60;100364.50;4962955;28;19926;-77
2023/06/30 05:42:09;;;;;;;;;;;;;;;25.14;43.95;100368.41;4960363;28;20393;-77
2023/06/30 05:45:01;;;;;;;;;;;;;;;25.10;43.43;100370.47;4964741;28;19922;-77
2023/06/30 05:47:53;;;;;;;;;;;;;;;25.15;43.67;100371.97;4966994;28;19914;-79
2023/06/30 05:50:45;;;;;;;;;;;;;;;25.17;43.76;100372.34;4975803;28;19914;-77
2023/06/30 05:53:37;;;;;;;;;;;;;;;25.24;43.18;100372.25;4956068;28;19918;-77
2023/06/30 05:56:27;;;;;;;;;;;;;;;25.26;42.35;100367.03;4938731;29;19922;-77
2023/06/30 05:59:19;;;;;;;;;;;;;;;25.36;42.40;100368.84;4936798;29;19919;-78
2023/06/30 06:02:11;;;;;;;;;;;;;;;25.44;42.02;100373.09;4949701;28;19915;-78
2023/06/30 06:05:03;;;;;;;;;;;;;;;25.42;40.25;100366.34;4955476;28;19914;-78
2023/06/30 06:07:53;;;;;;;;;;;;;;;25.51;40.11;100361.81;4955890;28;19915;-79
2023/06/30 06:10:45;;;;;;;;;;;;;;;25.60;40.22;100361.28;4957458;28;20369;-80
2023/06/30 06:13:40;;;;;;;;;;;;;;;25.64;40.38;100364.00;4955111;28;20329;-78
2023/06/30 06:16:30;;;;;;;;;;;;;;;25.68;39.06;100370.31;4958546;28;20382;-79
2023/06/30 06:19:22;;;;;;;;;;;;;;;25.70;39.95;100376.25;4956450;28;19914;-80
2023/06/30 06:22:14;;;;;;;;;;;;;;;25.72;37.88;100380.16;4954186;28;20381;-80
2023/06/30 06:25:06;;;;;;;;;;;;;;;25.76;37.95;100391.22;4957800;28;19914;-80
2023/06/30 06:27:58;;;;;;;;;;;;;;;25.74;36.93;100402.03;4955650;28;19914;-77
2023/06/30 06:30:50;;;;;;;;;;;;;;;25.81;37.03;100385.16;4960138;28;20293;-76
2023/06/30 06:33:42;;;;;;;;;;;;;;;25.79;37.25;100387.59;4957436;28;19918;-77
2023/06/30 06:36:32;;;;;;;;;;;;;;;25.72;37.68;100387.72;4955580;28;19914;-77
2023/06/30 06:39:21;;;;;;;;;;;;;;;25.85;37.40;100380.34;4960088;28;19914;-77
2023/06/30 06:42:13;;;;;;;;;;;;;;;25.91;37.23;100386.97;4958964;29;19933;-78
2023/06/30 06:45:03;;;;;;;;;;;;;;;25.84;36.85;100395.47;4954457;29;19914;-77
2023/06/30 06:48:11;;;;;;;;;;;;;;;25.84;36.71;100406.63;4959061;28;19914;-78
2023/06/30 06:51:03;;;;;;;;;;;;;;;25.83;35.27;100416.19;4954850;29;19918;-77
2023/06/30 06:53:55;;;;;;;;;;;;;;;25.66;34.89;100426.44;4960310;28;19918;-77
2023/06/30 06:56:47;;;;;;;;;;;;;;;25.51;34.46;100423.06;4958838;28;19919;-78
2023/06/30 06:59:39;;;;;;;;;;;;;;;25.55;35.22;100426.59;4968669;28;19914;-77
2023/06/30 07:02:31;;;;;;;;;;;;;;;25.45;34.99;100433.13;4958433;28;19918;-78
2023/06/30 07:05:20;;;;;;;;;;;;;;;25.50;35.60;100438.19;4966831;28;20336;-77
2023/06/30 07:08:12;;;;;;;;;;;;;;;25.53;35.68;100442.94;4952814;29;19914;-77
2023/06/30 07:11:04;;;;;;;;;;;;;;;25.36;35.54;100440.44;4962449;28;19918;-79
2023/06/30 07:13:57;;;;;;;;;;;;;;;25.36;35.69;100444.00;4968192;28;19918;-79
2023/06/30 07:16:49;;;;;;;;;;;;;;;25.38;35.76;100443.59;4964736;28;19915;-77
2023/06/30 07:19:41;;;;;;;;;;;;;;;25.52;35.81;100443.34;4968462;28;19914;-76
2023/06/30 07:22:33;;;;;;;;;;;;;;;25.41;34.84;100437.97;4958138;28;19915;-77
2023/06/30 07:25:25;;;;;;;;;;;;;;;25.49;34.31;100436.66;4970146;28;20297;-77
2023/06/30 07:28:17;;;;;;;;;;;;;;;25.94;33.71;100427.91;4952866;29;19918;-78
2023/06/30 07:31:06;;;;;;;;;;;;;;;25.81;34.46;100426.94;4964822;28;19918;-78
2023/06/30 07:34:00;;;;;;;;;;;;;;;26.02;34.28;100406.25;4961800;28;19918;-84
2023/06/30 07:36:49;;;;;;;;;;;;;;;25.88;35.10;100394.19;4961196;28;19918;-83
2023/06/30 07:39:39;;;;;;;;;;;;;;;26.75;34.08;100397.56;4978083;28;19914;-82
2023/06/30 07:42:31;;;;;;;;;;;;;;;27.13;33.37;100407.06;4958210;28;19918;-81
2023/06/30 07:45:22;;;;;;;;;;;;;;;26.41;34.15;100411.88;4968433;28;19914;-83
2023/06/30 07:48:14;;;;;;;;;;;;;;;28.41;31.49;100398.09;4970059;28;19914;-78
2023/06/30 07:51:06;;;;;;;;;;;;;;;29.90;29.25;100402.50;4968547;28;19914;-82
2023/06/30 07:53:58;;;;;;;;;;;;;;;29.27;29.72;100399.81;4957012;28;19922;-84
2023/06/30 07:56:50;;;;;;;;;;;;;;;28.77;31.11;100398.63;4964373;28;19918;-81
2023/06/30 07:59:42;;;;;;;;;;;;;;;28.26;31.24;100388.53;4957647;28;19915;-81
2023/06/30 08:02:31;;;;;;;;;;;;;;;28.32;29.83;100390.38;4962032;28;19914;-78
2023/06/30 08:05:23;;;;;;;;;;;;;;;28.95;29.53;100397.28;4941924;28;19933;-78
2023/06/30 08:08:16;;;;;;;;;;;;;;;28.29;31.15;100398.88;4959844;28;19914;-78
2023/06/30 08:11:08;;;;;;;;;;;;;;;28.44;29.73;100403.56;4968177;28;19914;-77
2023/06/30 08:14:00;;;;;;;;;;;;;;;27.90;30.03;100399.91;4970699;28;19918;-79
2023/06/30 08:16:49;;;;;;;;;;;;;;;27.98;29.16;100396.50;4965517;28;19914;-78
2023/06/30 08:19:41;;;;;;;;;;;;;;;27.51;28.89;100396.19;4961456;28;19914;-78
2023/06/30 08:22:33;;;;;;;;;;;;;;;28.07;29.02;100377.06;4967599;28;20301;-77
2023/06/30 08:25:28;;;;;;;;;;;;;;;29.08;28.35;100381.25;4963653;28;19914;-78
2023/06/30 08:28:20;;;;;;;;;;;;;;;28.14;28.86;100383.72;4959439;28;19918;-77
2023/06/30 08:31:12;;;;;;;;;;;;;;;28.74;28.13;100388.31;4950771;29;19914;-78
2023/06/30 08:34:04;;;;;;;;;;;;;;;28.75;28.59;100394.72;4961859;28;19918;-79
2023/06/30 08:36:59;;;;;;;;;;;;;;;27.91;28.18;100387.53;4967709;28;19914;-78
2023/06/30 08:39:51;;;;;;;;;;;;;;;27.41;28.23;100382.44;4963537;28;19919;-78
2023/06/30 08:42:47;;;;;;;;;;;;;;;27.15;27.76;100393.47;4969280;28;21601;-78
2023/06/30 08:45:41;;;;;;;;;;;;;;;27.35;29.00;100390.56;4959787;28;20301;-79
2023/06/30 08:48:33;;;;;;;;;;;;;;;26.73;30.03;100392.41;4960683;28;19914;-79
2023/06/30 08:51:23;;;;;;;;;;;;;;;26.52;30.37;100387.31;4956610;28;19922;-80
2023/06/30 08:54:13;;;;;;;;;;;;;;;26.45;31.49;100393.06;4955794;28;19919;-81
2023/06/30 08:57:05;;;;;;;;;;;;;;;26.94;31.93;100395.97;4962896;28;19914;-86
2023/06/30 08:59:57;;;;;;;;;;;;;;;27.11;31.56;100387.19;4958235;28;19914;-82
2023/06/30 09:02:49;;;;;;;;;;;;;;;26.71;32.18;100382.94;4963734;28;19922;-81
2023/06/30 09:05:39;;;;;;;;;;;;;;;27.12;32.26;100391.53;4974540;28;19914;-88
2023/06/30 09:08:27;;;;;;;;;;;;;;;26.91;32.56;100389.25;4964762;28;19914;-87
2023/06/30 09:11:19;;;;;;;;;;;;;;;26.72;32.99;100390.84;4962223;28;20389;-84
2023/06/30 09:14:11;;;;;;;;;;;;;;;26.85;32.97;100399.34;4959369;28;19926;-79
2023/06/30 09:17:03;;;;;;;;;;;;;;;26.58;33.45;100401.53;4953837;28;19918;-80
2023/06/30 09:19:52;;;;;;;;;;;;;;;26.71;33.10;100402.47;4962175;28;20297;-82
2023/06/30 09:22:46;;;;;;;;;;;;;;;26.45;32.85;100395.84;4962295;28;19915;-81
2023/06/30 09:25:39;;;;;;;;;;;;;;;26.49;33.31;100393.78;4961985;28;19922;-81
2023/06/30 09:28:36;;;;;;;;;;;;;;;26.77;33.52;100379.16;4956120;28;19919;-79
2023/06/30 09:31:37;;;;;;;;;;;;;;;26.58;33.15;100380.00;4956027;28;19914;-78
2023/06/30 09:34:29;;;;;;;;;;;;;;;26.91;32.87;100378.09;4958790;28;19918;-79
2023/06/30 09:37:21;;;;;;;;;;;;;;;26.70;33.22;100379.34;4963277;28;19922;-83
2023/06/30 09:40:12;;;;;;;;;;;;;;;26.88;32.84;100378.16;4939371;29;19922;-80
2023/06/30 09:43:04;;;;;;;;;;;;;;;26.79;32.83;100387.13;4965165;28;19914;-78
2023/06/30 09:45:59;;;;;;;;;;;;;;;27.08;32.83;100384.47;4959656;28;19918;-79
2023/06/30 09:48:54;;;;;;;;;;;;;;;27.24;32.24;100373.28;4953009;28;19922;-81
2023/06/30 09:51:44;;;;;;;;;;;;;;;27.14;32.86;100374.34;4960332;28;19914;-79
2023/06/30 09:54:36;;;;;;;;;;;;;;;27.46;32.95;100363.16;4960966;28;19918;-78
2023/06/30 09:57:31;;;;;;;;;;;;;;;27.02;33.18;100370.22;4959164;28;20301;-78
2023/06/30 10:00:23;;;;;;;;;;;;;;;27.07;33.87;100375.28;4955977;28;19914;-78
2023/06/30 10:03:18;;;;;;;;;;;;;;;27.00;34.35;100378.28;4954974;28;19914;-78
2023/06/30 10:06:10;;;;;;;;;;;;;;;26.90;34.41;100382.09;4950972;28;19914;-77
2023/06/30 10:09:03;;;;;;;;;;;;;;;27.03;34.18;100377.41;4948265;29;20288;-75
2023/06/30 10:11:55;;;;;;;;;;;;;;;26.74;35.00;100387.63;4954341;28;19922;-77
2023/06/30 10:14:48;;;;;;;;;;;;;;;26.64;34.93;100383.06;4964913;28;19918;-77
2023/06/30 10:17:42;;;;;;;;;;;;;;;26.91;34.74;100371.72;4947198;28;19915;-77
2023/06/30 10:20:34;;;;;;;;;;;;;;;26.79;35.01;100373.16;4967695;28;20408;-78
2023/06/30 10:23:26;;;;;;;;;;;;;;;26.69;35.43;100377.78;4967721;28;19925;-77
2023/06/30 10:26:20;;;;;;;;;;;;;;;26.87;35.35;100369.00;4970095;28;20306;-77
2023/06/30 10:29:12;;;;;;;;;;;;;;;26.86;35.63;100364.63;4969260;28;20370;-77
2023/06/30 10:32:04;;;;;;;;;;;;;;;26.81;35.21;100368.72;4964202;28;19914;-76
2023/06/30 10:34:56;;;;;;;;;;;;;;;26.72;35.35;100373.31;4966277;28;19918;-77
2023/06/30 10:37:48;;;;;;;;;;;;;;;26.51;35.33;100380.19;4962778;28;20313;-77
2023/06/30 10:40:40;;;;;;;;;;;;;;;26.87;34.93;100405.28;4949242;28;19915;-76
2023/06/30 10:43:50;;;;;;;;;;;;;;;26.78;35.31;100410.66;4965183;28;20400;-76
2023/06/30 10:46:59;;;;;;;;;;;;;;;26.13;38.34;100416.00;4963812;28;19913;-78
2023/06/30 10:49:53;;;;;;;;;;;;;;;24.93;53.45;100438.31;4962355;28;19918;-77
2023/06/30 10:52:53;;;;;;;57.33;5.60;;;;;;;22.06;98.04;100459.22;4960396;28;20399;-80
2023/06/30 10:55:45;;;;;;;31.75;5.13;;;;;;;21.66;100.00;100454.91;4958376;28;20047;-79
2023/06/30 10:58:41;;;;;;;36.55;8.25;;;;;;;22.53;100.00;100461.47;4981887;23;20039;-80
2023/06/30 11:01:33;;;;;;;40.58;5.35;;;;;;;22.57;100.00;100447.59;4971813;28;20043;-80
2023/06/30 11:04:37;;;;;;;46.13;7.55;;;;;;;22.74;100.00;100462.59;4971093;28;20038;-80
2023/06/30 11:07:31;;;;;;;46.53;5.60;;;;;;;22.47;100.00;100446.44;4980966;28;20040;-80
2023/06/30 11:10:41;;;;;;;46.78;7.60;;;;;;;22.08;100.00;100431.94;4984489;28;20046;-80
2023/06/30 11:13:45;;;;;;;27.40;5.28;;;;;;;21.93;100.00;100422.84;4980546;28;20038;-80
2023/06/30 11:17:11;;;;;;;39.83;5.20;;;;;;;21.75;100.00;100413.78;4970873;28;20047;-80
2023/06/30 11:20:11;;;;;;;21.50;4.72;;;;;;;21.88;100.00;100414.94;4984800;28;20031;-80
2023/06/30 11:23:08;;;;;;;23.98;3.47;;;;;;;21.62;100.00;100407.88;4977755;28;20039;-81
2023/06/30 11:26:00;;;;;;;16.17;3.77;;;;;;;21.69;100.00;100399.53;4982081;28;20039;-81
2023/06/30 11:28:53;;;;;;;13.82;4.10;;;;;;;21.95;100.00;100400.31;4970780;28;20043;-82
2023/06/30 11:31:45;;;;;;;8.23;2.85;;;;;;;21.93;100.00;100395.16;4964284;28;20506;-81
2023/06/30 11:34:41;;;;;;;30.52;4.85;;;;;;;22.06;100.00;100393.56;4979815;28;20050;-81
2023/06/30 11:37:35;;;;;;;20.13;3.85;;;;;;;22.29;100.00;100395.06;4973895;28;20047;-82
2023/06/30 11:40:27;;;;;;;565.65;134.95;;;;;;;22.80;95.24;100383.34;4983046;28;20501;-81
2023/06/30 11:43:22;;;;;;;215.60;42.35;;;;;;;23.67;83.14;100372.72;4965076;28;20039;-82
2023/06/30 11:46:13;;;;;;;45.17;11.00;;;;;;;24.26;78.64;100367.69;4979875;28;20039;-82
2023/06/30 11:49:06;;;;;;;24.73;6.05;;;;;;;24.54;73.42;100358.19;4974927;28;20039;-82
2023/06/30 11:52:02;;;;;;;15.25;3.08;;;;;;;24.80;71.12;100350.25;4978905;28;20047;-82
2023/06/30 11:54:56;;;;;;;8.13;2.40;;;;;;;24.95;69.28;100349.66;4984226;28;20038;-82
2023/06/30 11:57:50;;;;;;;7.13;2.85;;;;;;;25.00;68.26;100342.81;4981824;28;20053;-82
2023/06/30 12:00:44;;;;;;;6.35;2.35;;;;;;;25.06;66.37;100335.56;4985073;28;20049;-82
2023/06/30 12:03:39;;;;;;;9.65;2.95;;;;;;;25.10;66.23;100336.28;4982825;28;20046;-82
2023/06/30 12:06:31;;;;;;;3.45;2.25;;;;;;;25.15;66.03;100327.44;4969929;28;20058;-82
2023/06/30 12:09:26;;;;;;;2.58;1.77;;;;;;;25.22;64.26;100332.13;4964477;28;20058;-82
2023/06/30 12:12:29;;;;;;;3.60;1.77;;;;;;;25.31;63.62;100329.56;4963131;28;20054;-82
2023/06/30 12:15:21;;;;;;;2.00;1.65;;;;;;;25.33;63.60;100316.03;4964729;28;20046;-82
2023/06/30 12:18:16;;;;;;;5.38;2.13;;;;;;;25.40;63.84;100322.22;4963586;28;20058;-82
2023/06/30 12:21:15;;;;;;;;;;;;;;;25.39;64.44;100317.91;4967169;28;20066;-82
2023/06/30 12:24:09;;;;;;;2.78;1.80;;;;;;;25.41;62.77;100315.47;4964155;28;19914;-82
2023/06/30 12:27:07;;;;;;;4.22;1.70;;;;;;;25.44;62.05;100319.41;4962012;28;20054;-83
2023/06/30 12:30:01;;;;;;;3.05;1.92;;;;;;;25.47;63.28;100312.97;4980689;28;20054;-82
2023/06/30 12:33:00;;;;;;;4.40;1.95;;;;;;;25.47;61.92;100313.75;4980514;28;20054;-82
2023/06/30 12:35:53;;;;;;;3.35;1.67;;;;;;;25.52;61.05;100313.25;4984165;28;20054;-82
2023/06/30 12:38:45;;;;;;;2.03;1.52;;;;;;;25.58;60.73;100307.22;4976187;28;20042;-80
2023/06/30 12:41:40;;;;;;;3.35;1.48;;;;;;;25.61;60.64;100300.78;4970263;28;20045;-82
2023/06/30 12:44:34;;;;;;;4.97;1.98;;;;;;;25.61;59.80;100296.00;4977922;28;20050;-82
2023/06/30 12:47:29;;;;;;;4.38;2.70;;;;;;;25.67;60.44;100307.44;4979134;28;20046;-82
2023/06/30 12:50:23;;;;;;;4.38;2.10;;;;;;;25.70;61.29;100295.47;4963130;28;20545;-82
2023/06/30 12:53:13;;;;;;;5.03;1.42;;;;;;;25.72;60.28;100287.44;4975785;28;20046;-82
2023/06/30 12:56:07;;;;;;;11.07;2.53;;;;;;;25.73;59.87;100289.81;4969133;28;20050;-82
2023/06/30 12:59:02;;;;;;;4.57;2.10;;;;;;;25.76;58.75;100285.38;4977102;28;20045;-82
2023/06/30 13:01:57;;;;;;;11.35;2.53;;;;;;;25.79;59.69;100284.53;4971418;28;20516;-81
2023/06/30 13:04:51;;;;;;;2.78;1.77;;;;;;;25.82;59.02;100284.44;4972164;28;20080;-80
2023/06/30 13:07:43;;;;;;;;;;;;;;;25.84;57.50;100281.25;4976188;28;20042;-80
2023/06/30 13:10:38;;;;;;;7.22;1.50;;;;;;;25.85;57.12;100299.53;4977046;28;19914;-80
2023/06/30 13:17:20;;;;;;;4.72;1.90;;;;;;;25.82;59.38;100303.16;5389917;23;19930;-78
2023/06/30 13:20:15;;;;;;;14.07;2.75;;;;;;;25.80;59.09;100309.16;4951152;28;20450;-79
2023/06/30 13:23:09;;;;;;;9.95;3.47;;;;;;;25.78;60.57;100308.81;4950574;28;20171;-77
2023/06/30 13:26:02;;;;;;;17.67;3.60;;;;;;;25.78;59.95;100296.88;4945605;28;20046;-78
2023/06/30 13:28:57;;;;;;;14.40;3.38;;;;;;;25.81;61.95;100294.00;4947079;28;20043;-78
2023/06/30 13:31:52;;;;;;;12.93;3.60;;;;;;;25.83;61.48;100293.59;4935388;28;20046;-78
2023/06/30 13:34:41;;;;;;;;;;;;;;;25.82;61.79;100280.88;5027242;23;20053;-80
2023/06/30 13:37:31;;;;;;;4.32;2.22;;;;;;;25.84;62.07;100281.25;4990262;28;19925;-82
2023/06/30 13:40:23;;;;;;;9.20;2.90;;;;;;;25.82;61.54;100275.28;4992800;28;20057;-82
2023/06/30 13:43:12;;;;;;;6.57;2.90;;;;;;;25.82;62.47;100276.09;4986470;28;20049;-81
2023/06/30 13:46:07;;;;;;;4.10;2.85;;;;;;;25.83;62.10;100265.72;4998013;28;20512;-81
2023/06/30 13:48:59;;;;;;;7.03;3.10;;;;;;;25.83;62.39;100265.72;4994981;28;20118;-83
2023/06/30 13:51:54;;;;;;;5.03;2.67;;;;;;;25.85;62.26;100268.88;4996795;28;20038;-82
2023/06/30 13:54:46;;;;;;;10.75;3.03;;;;;;;25.84;62.58;100267.31;4994550;28;20448;-84
2023/06/30 13:57:36;;;;;;;;;;;;;;;25.88;62.52;100257.66;4995063;28;20049;-83
2023/06/30 14:00:29;;;;;;;11.32;2.92;;;;;;;25.87;62.55;100261.66;4999067;28;19914;-80
2023/06/30 14:03:23;;;;;;;9.95;2.90;;;;;;;25.90;63.25;100257.22;4995895;28;20045;-82
2023/06/30 14:06:18;;;;;;;5.78;2.55;;;;;;;25.88;63.00;100259.66;4994162;28;20058;-83
2023/06/30 14:09:11;;;;;;;;;;;;;;;25.89;62.62;100264.00;4979314;28;20049;-84
2023/06/30 14:12:05;;;;;;;6.30;2.55;;;;;;;25.88;62.84;100259.66;4978020;28;20380;-82
2023/06/30 14:14:57;;;;;;;;;;;;;;;25.89;62.78;100259.22;5004741;28;20053;-83
2023/06/30 14:17:49;;;;;;;4.35;2.75;;;;;;;25.91;63.25;100261.56;4990568;28;20403;-82
2023/06/30 14:20:44;;;;;;;12.68;3.70;;;;;;;25.91;63.43;100261.56;4983219;28;20061;-83
2023/06/30 14:23:38;;;;;;;6.70;3.47;;;;;;;25.92;63.56;100257.56;4997559;28;20539;-83
2023/06/30 14:26:32;;;;;;;8.52;3.67;;;;;;;25.91;63.24;100250.41;5013501;28;20049;-84
2023/06/30 14:29:26;;;;;;;7.53;4.88;;;;;;;25.93;63.65;100248.00;5000006;28;20061;-81